LFLL

Lyon/Saint-Exupery

Airport
ICAO code
LFLL
IATA Code
LYS
Summary
ICAO Region
EUR
ICAO Territory
Location

Colombier-Saugnieu, Rhone-Alpes

Serving
Lyon
Elevation
821 ft
Coordinates
45° 43' 32" N , 5° 4' 52" E
KCC
Metar
Observation
LFLL 010300Z 01003KT 9999 BKN013 06/04 Q1019 NOSIG
Station
Lyon / Satolas
Date/Time
2022-12-01 03:00:00
Wind direction
10°
Wind speed
03 kts
Lowest cloud amount
broken clouds
Temperature
6°C
Dew point
4°C
Humidity
86%
QNH
1019 hPa
Weather condition
n/a

Description

International airport serving city of Lyon in France; formerly known as Lyon Satolas.

Climatology

Humid Subtropical (Köppen climate classification Cfa).

Runways

Designator Length Width Surface Rops
18L/36R 2670 45 ASP Yes/Yes
18R/36L 4000 45 ASP Yes/Yes

SKYbrary Partners:

Safety knowledge contributed by: